Time;durP1;ratioP1;P1;durP2;ratioP2;P2;SDS_P1;SDS_P2;PMS_P1;PMS_P2;Temp;Humidity;BMP_temperature;BMP_pressure;BME280_temperature;BME280_humidity;BME280_pressure;Samples;Min_cycle;Max_cycle;Signal;HPM_P1;HPM_P2
2021/05/29 00:02:04;;;;;;;7.90;3.60;;;10.40;87.10;;;;;;5029175;28;20375;-80
2021/05/29 00:04:29;;;;;;;6.05;3.28;;;10.50;86.50;;;;;;5115265;27;20847;-80
2021/05/29 00:06:55;;;;;;;6.30;3.83;;;10.60;85.70;;;;;;5029137;28;20375;-80
2021/05/29 00:09:21;;;;;;;6.65;3.60;;;10.70;85.20;;;;;;5115056;27;20492;-81
2021/05/29 00:11:47;;;;;;;9.67;4.07;;;10.70;84.80;;;;;;5029674;28;20388;-80
2021/05/29 00:14:12;;;;;;;6.07;3.30;;;10.50;85.90;;;;;;5028984;28;20744;-80
2021/05/29 00:16:38;;;;;;;5.20;3.60;;;10.50;85.80;;;;;;5029133;28;20376;-81
2021/05/29 00:19:04;;;;;;;7.88;3.72;;;10.70;85.00;;;;;;5029026;28;20375;-82
2021/05/29 00:21:29;;;;;;;5.47;3.60;;;10.60;85.20;;;;;;5114906;27;20859;-80
2021/05/29 00:23:55;;;;;;;5.77;3.60;;;10.40;86.10;;;;;;5029193;28;20384;-80
2021/05/29 00:26:21;;;;;;;6.33;3.87;;;10.40;86.30;;;;;;5029197;28;20419;-80
2021/05/29 00:28:46;;;;;;;6.35;3.78;;;10.40;86.00;;;;;;5114212;27;20452;-80
2021/05/29 00:31:13;;;;;;;7.53;3.70;;;10.30;86.30;;;;;;5029035;28;20403;-80
2021/05/29 00:33:38;;;;;;;5.67;3.50;;;10.20;87.30;;;;;;5029430;28;20733;-80
2021/05/29 00:36:04;;;;;;;9.50;3.70;;;10.40;86.30;;;;;;5029405;28;20391;-80
2021/05/29 00:38:30;;;;;;;8.10;3.90;;;10.50;85.50;;;;;;5114140;27;20580;-80
2021/05/29 00:40:56;;;;;;;7.30;3.92;;;10.40;85.70;;;;;;5028959;28;20384;-80
2021/05/29 00:43:22;;;;;;;6.82;3.72;;;10.30;86.30;;;;;;5028951;28;20380;-80
2021/05/29 00:45:48;;;;;;;8.13;3.85;;;10.40;85.90;;;;;;5028664;28;20371;-81
2021/05/29 00:48:14;;;;;;;4.90;4.18;;;10.30;85.60;;;;;;5028562;28;20532;-80
2021/05/29 00:50:49;;;;;;;5.53;3.45;;;9.90;87.50;;;;;;5028303;28;20855;-80
2021/05/29 00:53:18;;;;;;;6.80;4.22;;;10.30;85.90;;;;;;5114460;27;20471;-79
2021/05/29 00:55:45;;;;;;;5.82;3.70;;;10.20;86.00;;;;;;5027962;28;20372;-80
2021/05/29 00:58:10;;;;;;;5.75;4.13;;;9.90;87.20;;;;;;5028343;28;20516;-80
2021/05/29 01:00:36;;;;;;;5.85;3.88;;;9.80;87.90;;;;;;5028555;28;20840;-80
2021/05/29 01:03:02;;;;;;;7.15;3.90;;;9.80;88.20;;;;;;5028903;28;20905;-81
2021/05/29 01:05:27;;;;;;;10.90;4.00;;;9.70;88.00;;;;;;5027838;28;20472;-80
2021/05/29 01:07:54;;;;;;;8.23;4.00;;;9.60;88.40;;;;;;5027676;28;20375;-79
2021/05/29 01:10:22;;;;;;;7.03;4.25;;;9.70;87.00;;;;;;5027773;28;20433;-81
2021/05/29 01:12:48;;;;;;;9.05;4.13;;;9.80;87.10;;;;;;5113628;27;20395;-81
2021/05/29 01:15:18;;;;;;;8.70;4.35;;;9.90;86.70;;;;;;5028629;28;20492;-82
2021/05/29 01:17:43;;;;;;;5.20;3.80;;;9.80;87.30;;;;;;5112989;27;20859;-80
2021/05/29 01:20:10;;;;;;;6.13;3.97;;;9.60;87.80;;;;;;5028777;28;20432;-81
2021/05/29 01:22:45;;;;;;;6.47;3.88;;;9.80;86.80;;;;;;5113528;27;20399;-80
2021/05/29 01:25:17;;;;;;;8.45;4.22;;;9.90;86.10;;;;;;5028554;28;20384;-81
2021/05/29 01:27:44;;;;;;;15.80;4.40;;;9.50;87.40;;;;;;5027698;28;20418;-81
2021/05/29 01:30:11;;;;;;;5.97;3.65;;;9.60;87.50;;;;;;5028195;28;20383;-81
2021/05/29 01:32:37;;;;;;;7.85;3.67;;;9.80;86.40;;;;;;5027597;28;20874;-81
2021/05/29 01:35:06;;;;;;;7.30;3.90;;;9.90;86.00;;;;;;5027976;28;20398;-82
2021/05/29 01:37:32;;;;;;;5.40;4.07;;;9.90;85.90;;;;;;5027876;28;20387;-80
2021/05/29 01:39:58;;;;;;;7.50;4.20;;;9.50;86.90;;;;;;5027689;28;20460;-80
2021/05/29 01:42:25;;;;;;;5.97;4.07;;;9.10;89.30;;;;;;5028094;28;20383;-80
2021/05/29 01:44:51;;;;;;;7.45;4.10;;;9.40;88.40;;;;;;5027718;28;20375;-82
2021/05/29 01:47:17;;;;;;;8.40;4.07;;;9.50;87.10;;;;;;5113088;27;20422;-81
2021/05/29 01:49:43;;;;;;;6.97;3.70;;;9.60;86.30;;;;;;5027728;28;20407;-80
2021/05/29 01:52:08;;;;;;;8.00;3.90;;;9.60;86.60;;;;;;5026823;28;20398;-80
2021/05/29 01:54:34;;;;;;;6.03;3.83;;;9.60;86.60;;;;;;5027590;28;20447;-80
2021/05/29 01:56:59;;;;;;;7.07;4.53;;;9.40;87.10;;;;;;5027351;28;20756;-81
2021/05/29 01:59:25;;;;;;;6.03;4.05;;;9.10;87.90;;;;;;5027328;28;20398;-81
2021/05/29 02:01:51;;;;;;;8.52;4.00;;;9.10;88.90;;;;;;5027741;28;20464;-82
2021/05/29 02:04:16;;;;;;;7.23;4.20;;;9.20;87.70;;;;;;5027826;28;20383;-80
2021/05/29 02:06:42;;;;;;;8.47;4.70;;;9.20;87.50;;;;;;5027006;28;20383;-80
2021/05/29 02:09:07;;;;;;;8.40;4.00;;;8.90;88.80;;;;;;5028117;28;20400;-81
2021/05/29 02:11:33;;;;;;;5.40;3.90;;;9.20;87.70;;;;;;5027333;28;20410;-81
2021/05/29 02:13:59;;;;;;;6.25;3.92;;;9.00;87.60;;;;;;5113116;27;20763;-82
2021/05/29 02:16:24;;;;;;;9.67;4.53;;;8.90;88.60;;;;;;5027237;28;20472;-80
2021/05/29 02:18:50;;;;;;;7.35;3.88;;;9.10;87.60;;;;;;5027366;28;20383;-81
2021/05/29 02:21:18;;;;;;;8.57;4.50;;;9.30;86.70;;;;;;5027140;28;20460;-80
2021/05/29 02:23:48;;;;;;;9.33;4.47;;;9.10;87.00;;;;;;5027645;28;20422;-82
2021/05/29 02:26:16;;;;;;;7.57;4.30;;;8.80;88.30;;;;;;5112496;28;20411;-80
2021/05/29 02:28:47;;;;;;;6.00;4.30;;;8.60;89.30;;;;;;5026901;28;20386;-81
2021/05/29 02:31:13;;;;;;;6.70;4.68;;;8.30;90.20;;;;;;5027005;28;20893;-81
2021/05/29 02:33:40;;;;;;;5.78;4.05;;;8.60;90.00;;;;;;5027230;28;20385;-81
2021/05/29 02:36:07;;;;;;;10.18;4.10;;;8.90;88.30;;;;;;5027577;28;20376;-81
2021/05/29 02:38:34;;;;;;;6.30;4.10;;;9.00;87.20;;;;;;5112035;28;20383;-81
2021/05/29 02:41:01;;;;;;;7.80;4.27;;;9.10;86.60;;;;;;5027230;28;20411;-82
2021/05/29 02:43:27;;;;;;;6.90;4.10;;;9.10;86.70;;;;;;5026988;28;20474;-82
2021/05/29 02:45:53;;;;;;;7.73;4.43;;;9.00;86.80;;;;;;5027488;28;20552;-80
2021/05/29 02:48:19;;;;;;;5.70;4.18;;;9.00;86.80;;;;;;5026465;28;20719;-81
2021/05/29 02:50:45;;;;;;;7.50;4.13;;;9.10;86.50;;;;;;5026899;28;20482;-83
2021/05/29 02:53:13;;;;;;;9.80;3.90;;;9.00;86.50;;;;;;5026841;28;20459;-81
2021/05/29 02:55:39;;;;;;;6.05;4.00;;;8.40;88.50;;;;;;5027278;28;20949;-81
2021/05/29 02:58:11;;;;;;;7.82;4.00;;;8.50;88.50;;;;;;5026445;28;20393;-81
2021/05/29 03:00:44;;;;;;;5.10;4.05;;;8.60;88.30;;;;;;5112329;28;20411;-82
2021/05/29 03:03:10;;;;;;;6.35;3.80;;;8.70;87.70;;;;;;5027382;28;20403;-81
2021/05/29 03:05:37;;;;;;;6.90;3.75;;;8.90;86.80;;;;;;5026765;28;20458;-81
2021/05/29 03:08:04;;;;;;;7.28;4.20;;;8.90;86.40;;;;;;5026761;28;20371;-81
2021/05/29 03:10:30;;;;;;;9.95;4.38;;;8.60;87.20;;;;;;5111957;28;20391;-82
2021/05/29 03:12:55;;;;;;;6.32;4.60;;;8.30;88.50;;;;;;5026990;28;20875;-81
2021/05/29 03:15:24;;;;;;;9.38;4.30;;;8.00;89.70;;;;;;5111695;28;20391;-82
2021/05/29 03:17:50;;;;;;;5.82;4.18;;;8.30;89.30;;;;;;5112205;28;20418;-81
2021/05/29 03:20:20;;;;;;;6.28;3.97;;;8.50;87.70;;;;;;5026605;28;20486;-81
2021/05/29 03:22:45;;;;;;;7.50;4.13;;;8.50;87.30;;;;;;5027078;28;20384;-81
2021/05/29 03:25:13;;;;;;;7.65;4.70;;;8.50;87.60;;;;;;5026945;28;20432;-81
2021/05/29 03:27:38;;;;;;;7.97;4.53;;;8.30;88.10;;;;;;5026498;28;20389;-81
2021/05/29 03:30:06;;;;;;;8.03;4.60;;;7.90;89.90;;;;;;5028583;28;20656;-81
2021/05/29 03:32:32;;;;;;;9.20;4.00;;;8.00;89.80;;;;;;5029847;28;20372;-81
2021/05/29 03:34:57;;;;;;;10.27;4.50;;;8.30;88.60;;;;;;5029404;28;20474;-81
2021/05/29 03:37:23;;;;;;;6.63;3.83;;;8.40;87.50;;;;;;5114993;27;20727;-82
2021/05/29 03:39:49;;;;;;;7.15;3.92;;;8.60;87.10;;;;;;5029851;28;20418;-82
2021/05/29 03:42:14;;;;;;;10.57;4.30;;;8.60;86.80;;;;;;5115373;27;20415;-81
2021/05/29 03:44:40;;;;;;;6.50;4.00;;;8.40;87.40;;;;;;5029835;28;20380;-81
2021/05/29 03:47:11;;;;;;;6.55;4.50;;;8.00;88.90;;;;;;5029940;28;20387;-81
2021/05/29 03:49:37;;;;;;;7.57;4.50;;;8.00;89.60;;;;;;5029702;28;20449;-82
2021/05/29 03:52:03;;;;;;;8.97;4.17;;;7.90;90.00;;;;;;5115251;27;20392;-81
2021/05/29 03:54:28;;;;;;;8.38;4.70;;;8.20;89.20;;;;;;5029624;28;20482;-82
2021/05/29 03:56:54;;;;;;;7.97;4.30;;;8.40;87.90;;;;;;5028182;28;20436;-81
2021/05/29 03:59:21;;;;;;;6.20;4.03;;;8.40;87.60;;;;;;5029348;28;20376;-82
2021/05/29 04:01:46;;;;;;;6.53;4.38;;;8.20;88.40;;;;;;5029631;28;20494;-83
2021/05/29 04:04:12;;;;;;;6.75;4.10;;;8.20;88.60;;;;;;5115223;27;20471;-82
2021/05/29 04:06:38;;;;;;;5.97;4.47;;;8.30;88.00;;;;;;5115235;27;20432;-82
2021/05/29 04:09:05;;;;;;;8.03;4.60;;;8.50;87.10;;;;;;5029214;28;20387;-81
2021/05/29 04:11:31;;;;;;;8.50;4.75;;;8.40;87.20;;;;;;5029371;28;20395;-81
2021/05/29 04:13:57;;;;;;;7.10;5.07;;;8.30;87.90;;;;;;5114879;27;20904;-82
2021/05/29 04:16:23;;;;;;;11.30;4.23;;;8.10;88.70;;;;;;5029171;28;20384;-82
2021/05/29 04:18:48;;;;;;;7.40;4.57;;;8.40;88.10;;;;;;5029437;28;20543;-82
2021/05/29 04:21:14;;;;;;;9.32;5.07;;;8.40;87.70;;;;;;5114551;27;20404;-82
2021/05/29 04:23:40;;;;;;;8.30;4.82;;;8.50;87.20;;;;;;5029118;28;20391;-82
2021/05/29 04:26:07;;;;;;;7.38;4.70;;;8.40;88.10;;;;;;5029099;28;20467;-82
2021/05/29 04:28:34;;;;;;;8.63;5.00;;;8.50;87.70;;;;;;5113947;27;20388;-82
2021/05/29 04:31:00;;;;;;;6.82;4.50;;;8.50;88.20;;;;;;5114659;27;20879;-82
2021/05/29 04:33:26;;;;;;;8.60;5.18;;;8.60;87.80;;;;;;5029108;28;20382;-82
2021/05/29 04:35:51;;;;;;;7.57;5.25;;;8.70;87.60;;;;;;5029165;28;20387;-82
2021/05/29 04:38:17;;;;;;;7.85;4.63;;;8.70;87.40;;;;;;5028542;28;20421;-82
2021/05/29 04:40:43;;;;;;;8.25;4.93;;;8.70;87.70;;;;;;5028711;28;20407;-82
2021/05/29 04:43:09;;;;;;;10.05;5.80;;;8.70;87.70;;;;;;5028866;28;20870;-82
2021/05/29 04:45:34;;;;;;;11.25;6.15;;;8.80;87.40;;;;;;5028790;28;20800;-82
2021/05/29 04:48:00;;;;;;;8.93;5.77;;;8.80;87.70;;;;;;5026859;28;20419;-82
2021/05/29 04:50:25;;;;;;;15.17;7.80;;;8.80;88.20;;;;;;5028766;28;20835;-82
2021/05/29 04:52:51;;;;;;;12.38;7.60;;;8.80;89.10;;;;;;5028627;28;20738;-82
2021/05/29 04:55:17;;;;;;;12.65;5.95;;;8.90;90.20;;;;;;5028830;28;20795;-82
2021/05/29 04:57:43;;;;;;;10.52;6.10;;;8.90;89.00;;;;;;5028389;28;20715;-82
2021/05/29 05:00:12;;;;;;;15.13;8.18;;;8.90;88.20;;;;;;5028487;28;20489;-82
2021/05/29 05:02:38;;;;;;;14.70;8.80;;;9.10;89.80;;;;;;5114160;27;20383;-83
2021/05/29 05:05:05;;;;;;;15.25;9.68;;;9.10;90.20;;;;;;5028547;28;20375;-82
2021/05/29 05:07:31;;;;;;;16.25;8.95;;;9.10;90.70;;;;;;5028127;28;20375;-82
2021/05/29 05:09:56;;;;;;;9.90;7.40;;;9.20;90.30;;;;;;5114010;27;20487;-82
2021/05/29 05:12:22;;;;;;;12.80;7.43;;;9.20;90.10;;;;;;5113962;27;20403;-82
2021/05/29 05:14:47;;;;;;;14.23;7.37;;;9.20;90.70;;;;;;5028500;28;20403;-82
2021/05/29 05:17:13;;;;;;;11.27;7.32;;;9.20;89.40;;;;;;5028500;28;20456;-81
2021/05/29 05:19:39;;;;;;;13.20;8.05;;;9.10;90.30;;;;;;5028261;28;20466;-82
2021/05/29 05:22:05;;;;;;;12.63;8.18;;;9.30;90.60;;;;;;5028434;28;20383;-83
2021/05/29 05:24:30;;;;;;;13.63;8.70;;;9.40;90.30;;;;;;5028559;28;20384;-82
2021/05/29 05:26:56;;;;;;;19.65;9.05;;;9.50;91.00;;;;;;5027942;28;20379;-81
2021/05/29 05:29:22;;;;;;;15.73;9.55;;;9.60;90.70;;;;;;5028113;28;20386;-82
2021/05/29 05:31:48;;;;;;;13.40;9.40;;;9.70;90.60;;;;;;5028117;28;20418;-82
2021/05/29 05:34:13;;;;;;;17.58;9.95;;;9.70;90.50;;;;;;5113418;27;20379;-81
2021/05/29 05:36:40;;;;;;;18.38;8.52;;;9.70;91.10;;;;;;5027494;28;20446;-82
2021/05/29 05:39:08;;;;;;;15.32;8.05;;;9.60;91.00;;;;;;5028246;28;20748;-82
2021/05/29 05:41:35;;;;;;;12.15;7.80;;;9.70;90.40;;;;;;5027603;28;20411;-82
2021/05/29 05:44:01;;;;;;;11.38;8.00;;;9.60;90.30;;;;;;5028196;28;20856;-82
2021/05/29 05:46:26;;;;;;;11.73;7.85;;;9.70;90.20;;;;;;5024071;28;20385;-84
2021/05/29 05:48:52;;;;;;;14.60;8.27;;;9.60;90.50;;;;;;5102363;27;20375;-82
2021/05/29 05:51:18;;;;;;;13.97;8.40;;;9.60;90.90;;;;;;5130534;27;20386;-81
2021/05/29 05:53:44;;;;;;;15.95;9.55;;;9.70;90.90;;;;;;5131130;27;20362;-82
2021/05/29 05:56:09;;;;;;;17.50;9.53;;;9.80;90.60;;;;;;5131412;27;20374;-82
2021/05/29 05:58:37;;;;;;;13.60;9.20;;;9.90;90.70;;;;;;5129873;27;20378;-81
2021/05/29 06:01:05;;;;;;;17.58;9.38;;;10.10;90.30;;;;;;5130191;27;20890;-82
2021/05/29 06:03:31;;;;;;;15.90;9.73;;;10.20;89.70;;;;;;5101709;27;20392;-82
2021/05/29 06:05:56;;;;;;;20.00;11.70;;;10.10;90.00;;;;;;5027743;28;20402;-82
2021/05/29 06:08:22;;;;;;;19.23;11.70;;;10.10;90.00;;;;;;5027445;28;20375;-84
2021/05/29 06:10:49;;;;;;;17.83;10.52;;;10.10;90.60;;;;;;5026592;28;20848;-81
2021/05/29 06:13:27;;;;;;;16.50;10.10;;;10.30;90.30;;;;;;5026556;28;20379;-80
2021/05/29 06:19:38;;;;;;;15.18;9.40;;;10.50;89.60;;;;;;5025469;28;20750;-80
2021/05/29 06:21:31;;;;;;;18.15;10.05;;;10.50;88.60;;;;;;5020012;28;20434;-81
2021/05/29 06:23:57;;;;;;;16.25;9.82;;;10.70;88.70;;;;;;5025926;28;20828;-82
2021/05/29 06:26:23;;;;;;;15.43;9.83;;;10.70;89.30;;;;;;5024568;28;20461;-81
2021/05/29 06:28:49;;;;;;;14.18;9.45;;;10.80;88.50;;;;;;5025786;28;20399;-81
2021/05/29 06:31:15;;;;;;;18.50;10.90;;;10.90;88.20;;;;;;5027524;28;20749;-83
2021/05/29 06:33:40;;;;;;;17.00;10.30;;;10.80;88.70;;;;;;5027630;28;20375;-81
2021/05/29 06:36:06;;;;;;;18.23;9.97;;;10.90;88.70;;;;;;5027003;28;20384;-80
2021/05/29 06:38:31;;;;;;;16.45;10.23;;;10.80;89.30;;;;;;5027128;28;20720;-80
2021/05/29 06:40:57;;;;;;;15.77;9.70;;;10.80;88.90;;;;;;5027016;28;20875;-80
2021/05/29 06:43:22;;;;;;;14.17;9.03;;;10.70;89.40;;;;;;5026163;28;20784;-80
2021/05/29 06:45:48;;;;;;;15.73;10.30;;;10.80;88.80;;;;;;5027382;28;20786;-81
2021/05/29 06:48:15;;;;;;;13.13;9.27;;;10.90;89.40;;;;;;5026729;28;20863;-80
2021/05/29 06:50:48;;;;;;;16.42;8.63;;;11.00;88.30;;;;;;5027349;28;20823;-81
2021/05/29 06:53:17;;;;;;;18.58;9.48;;;11.20;87.30;;;;;;5027113;28;20849;-79
2021/05/29 07:01:10;;;;;;;12.07;7.85;;;11.50;85.60;;;;;;5026943;28;20433;-80
2021/05/29 07:03:36;;;;;;;14.43;8.98;;;11.60;85.20;;;;;;5026911;28;20391;-80
2021/05/29 07:06:02;;;;;;;14.80;9.43;;;11.60;84.20;;;;;;5029850;28;20847;-80
2021/05/29 07:08:27;;;;;;;15.10;9.20;;;11.50;85.00;;;;;;5030276;28;20375;-79
2021/05/29 07:10:53;;;;;;;15.37;9.23;;;11.60;84.60;;;;;;5028027;28;20383;-81
2021/05/29 07:13:18;;;;;;;13.60;9.07;;;11.60;84.60;;;;;;5030420;28;20448;-82
2021/05/29 07:15:44;;;;;;;16.45;8.95;;;11.80;84.50;;;;;;5029859;28;20494;-80
2021/05/29 07:18:14;;;;;;;14.63;9.13;;;11.90;83.90;;;;;;5030079;28;20727;-81
2021/05/29 07:20:41;;;;;;;17.35;9.52;;;11.90;84.90;;;;;;5030145;28;20407;-80
2021/05/29 07:23:07;;;;;;;14.02;9.48;;;11.80;84.60;;;;;;5030423;28;20383;-80
2021/05/29 07:25:33;;;;;;;14.73;9.82;;;12.00;83.80;;;;;;5029954;28;20436;-80
2021/05/29 07:27:59;;;;;;;18.52;10.75;;;12.10;83.50;;;;;;5028513;28;20732;-81
2021/05/29 07:30:25;;;;;;;16.63;11.20;;;12.00;82.80;;;;;;5028853;28;20399;-81
2021/05/29 07:32:51;;;;;;;19.20;13.15;;;12.20;83.50;;;;;;5030727;28;20451;-81
2021/05/29 07:35:18;;;;;;;21.77;14.47;;;12.20;83.60;;;;;;5029721;28;20368;-81
2021/05/29 07:37:45;;;;;;;25.90;16.88;;;12.30;84.00;;;;;;5028826;28;20387;-83
2021/05/29 07:40:11;;;;;;;28.38;17.30;;;12.40;83.50;;;;;;5030163;28;20411;-82
2021/05/29 07:42:36;;;;;;;26.80;17.40;;;12.40;83.90;;;;;;5029787;28;20395;-81
2021/05/29 07:45:04;;;;;;;24.87;16.03;;;12.30;83.60;;;;;;5030499;28;20858;-81
2021/05/29 07:47:29;;;;;;;27.95;16.92;;;12.60;83.30;;;;;;5029252;28;20383;-81
2021/05/29 07:49:55;;;;;;;23.90;17.45;;;12.50;82.30;;;;;;5030102;28;20380;-80
2021/05/29 07:52:20;;;;;;;24.17;16.70;;;12.60;83.40;;;;;;5029361;28;20402;-81
2021/05/29 07:54:46;;;;;;;21.70;16.20;;;12.70;81.70;;;;;;5028881;28;20407;-81
2021/05/29 07:57:12;;;;;;;25.00;17.83;;;12.90;82.10;;;;;;5029115;28;20786;-82
2021/05/29 07:59:41;;;;;;;26.38;18.25;;;12.90;80.90;;;;;;5029842;28;20407;-82
2021/05/29 08:02:07;;;;;;;25.45;17.10;;;12.90;81.00;;;;;;5028362;28;20396;-80
2021/05/29 08:04:33;;;;;;;24.50;17.80;;;12.90;82.00;;;;;;5029882;28;20382;-81
2021/05/29 08:06:58;;;;;;;25.00;16.67;;;13.00;82.10;;;;;;5029718;28;20751;-82
2021/05/29 08:09:24;;;;;;;23.27;15.37;;;13.10;82.90;;;;;;5027712;28;20372;-82
2021/05/29 08:11:50;;;;;;;25.08;15.52;;;13.00;79.70;;;;;;5029334;28;20436;-83
2021/05/29 08:14:16;;;;;;;25.85;16.52;;;13.20;80.60;;;;;;5029334;28;20402;-81
2021/05/29 08:16:42;;;;;;;23.50;15.93;;;13.10;80.40;;;;;;5028638;28;20379;-81
2021/05/29 08:19:09;;;;;;;25.08;16.50;;;13.30;80.50;;;;;;5029188;28;20382;-82
2021/05/29 08:21:36;;;;;;;23.08;16.95;;;13.40;78.60;;;;;;5029537;28;20503;-81
2021/05/29 08:24:02;;;;;;;22.65;16.70;;;13.30;78.50;;;;;;5029041;28;20423;-81
2021/05/29 08:26:28;;;;;;;21.75;13.82;;;13.40;80.30;;;;;;5029606;28;20411;-80
2021/05/29 08:28:55;;;;;;;22.85;14.77;;;13.30;77.10;;;;;;5028756;28;20367;-80
2021/05/29 08:31:20;;;;;;;22.98;15.68;;;13.30;78.90;;;;;;5029068;28;20871;-82
2021/05/29 08:33:46;;;;;;;18.27;12.15;;;13.50;78.30;;;;;;5028962;28;20387;-80
2021/05/29 08:36:12;;;;;;;18.00;12.77;;;13.50;76.00;;;;;;5028856;28;20379;-81
2021/05/29 08:38:38;;;;;;;20.60;13.40;;;13.30;77.30;;;;;;5028843;28;20456;-81
2021/05/29 08:41:05;;;;;;;23.75;13.98;;;13.90;75.50;;;;;;5027729;28;20464;-81
2021/05/29 08:43:30;;;;;;;18.27;12.70;;;13.60;77.90;;;;;;5028023;28;20712;-80
2021/05/29 08:45:56;;;;;;;15.88;10.98;;;13.70;78.10;;;;;;5028616;28;20378;-81
2021/05/29 08:48:22;;;;;;;16.70;9.27;;;13.70;76.20;;;;;;5028518;28;20371;-82
2021/05/29 08:53:32;;;;;;;16.50;9.30;;;13.30;76.40;;;;;;5029153;28;20785;-80
2021/05/29 08:55:58;;;;;;;13.07;8.10;;;13.10;76.30;;;;;;5027520;28;20415;-82
2021/05/29 08:58:24;;;;;;;11.85;8.10;;;13.20;75.60;;;;;;5027056;28;20402;-80
2021/05/29 09:00:50;;;;;;;14.18;7.80;;;13.60;76.80;;;;;;5027693;28;20415;-80
2021/05/29 09:03:16;;;;;;;13.50;7.17;;;13.70;74.70;;;;;;5029509;28;20908;-79
2021/05/29 09:05:44;;;;;;;12.23;6.80;;;14.30;74.80;;;;;;5029613;28;20383;-80
2021/05/29 09:08:12;;;;;;;14.75;7.90;;;14.60;72.90;;;;;;5029179;28;20436;-80
2021/05/29 09:10:47;;;;;;;11.35;7.32;;;14.40;72.40;;;;;;5029881;28;20379;-80
2021/05/29 09:13:16;;;;;;;13.37;8.73;;;13.90;72.70;;;;;;5029654;28;20403;-79
2021/05/29 09:15:54;;;;;;;13.98;7.53;;;13.70;74.00;;;;;;5029760;28;20722;-80
2021/05/29 09:18:27;;;;;;;12.13;7.55;;;13.80;72.60;;;;;;5029658;28;20391;-81
2021/05/29 09:20:53;;;;;;;11.90;7.32;;;13.80;74.00;;;;;;5115419;27;20439;-80
2021/05/29 09:23:21;;;;;;;12.02;7.40;;;13.90;75.10;;;;;;5028650;28;21281;-80
2021/05/29 09:25:53;;;;;;;12.93;7.50;;;13.90;74.50;;;;;;5029736;28;20390;-80
2021/05/29 09:28:23;;;;;;;14.73;8.07;;;14.10;73.80;;;;;;5028373;28;20379;-80
2021/05/29 09:30:51;;;;;;;13.37;7.87;;;14.40;73.00;;;;;;5115067;27;20409;-79
2021/05/29 09:33:19;;;;;;;12.32;7.50;;;14.10;73.50;;;;;;5114651;27;20879;-80
2021/05/29 09:35:56;;;;;;;17.15;10.82;;;13.90;73.90;;;;;;5028258;28;20478;-79
2021/05/29 09:38:23;;;;;;;14.77;7.40;;;14.00;75.40;;;;;;5028360;28;20844;-79
2021/05/29 09:40:54;;;;;;;16.25;7.82;;;13.70;74.40;;;;;;5028144;28;20430;-78
2021/05/29 09:43:22;;;;;;;12.43;8.02;;;13.80;73.80;;;;;;5028830;28;20387;-80
2021/05/29 09:46:03;;;;;;;12.57;7.45;;;13.60;72.60;;;;;;5028065;28;20383;-79
2021/05/29 09:48:30;;;;;;;10.75;7.07;;;14.60;71.80;;;;;;5027214;28;20394;-79
2021/05/29 09:51:05;;;;;;;11.27;6.80;;;15.30;69.60;;;;;;5028167;28;20411;-78
2021/05/29 09:53:32;;;;;;;12.98;6.88;;;15.00;70.50;;;;;;5028199;28;20483;-80
2021/05/29 09:55:58;;;;;;;13.48;6.95;;;14.60;68.90;;;;;;5028961;28;20391;-80
2021/05/29 09:58:50;;;;;;;9.60;6.37;;;15.10;70.70;;;;;;5027708;28;20406;-80
2021/05/29 10:01:35;;;;;;;11.52;6.70;;;15.20;66.20;;;;;;5026779;28;20403;-80
2021/05/29 10:04:01;;;;;;;11.23;6.40;;;14.80;67.90;;;;;;5026990;28;20392;-81
2021/05/29 10:06:26;;;;;;;11.05;6.43;;;14.60;68.40;;;;;;5027571;28;20398;-80
2021/05/29 10:08:53;;;;;;;11.13;6.60;;;14.70;69.30;;;;;;5028125;28;20741;-80
2021/05/29 10:11:18;;;;;;;11.38;6.60;;;14.80;70.30;;;;;;5028205;28;20395;-80
2021/05/29 10:13:44;;;;;;;10.93;6.47;;;14.60;68.60;;;;;;5113146;27;20456;-79
2021/05/29 10:16:10;;;;;;;12.37;6.37;;;14.80;68.70;;;;;;5028397;28;20458;-82
2021/05/29 10:18:36;;;;;;;14.13;6.63;;;14.90;68.90;;;;;;5028316;28;20491;-80
2021/05/29 10:21:02;;;;;;;12.52;7.25;;;15.10;68.60;;;;;;5111394;27;20498;-80
2021/05/29 10:23:28;;;;;;;14.18;6.75;;;14.90;66.70;;;;;;5027634;28;20391;-80
2021/05/29 10:25:58;;;;;;;10.98;6.63;;;14.60;68.30;;;;;;5112306;27;20387;-81
2021/05/29 10:28:24;;;;;;;10.68;6.57;;;14.80;67.40;;;;;;5028194;28;20451;-82
2021/05/29 10:30:51;;;;;;;10.88;6.50;;;15.30;66.10;;;;;;5028315;28;20750;-81
2021/05/29 10:33:20;;;;;;;9.23;5.97;;;14.90;66.20;;;;;;5028692;28;20388;-80
2021/05/29 10:35:46;;;;;;;12.93;6.53;;;15.10;67.80;;;;;;5028701;28;20383;-80
2021/05/29 10:38:13;;;;;;;9.57;5.97;;;15.30;67.60;;;;;;5027928;28;20375;-82
2021/05/29 10:40:41;;;;;;;10.50;7.00;;;15.70;65.70;;;;;;5031177;28;20778;-81
2021/05/29 10:43:15;;;;;;;13.77;6.30;;;15.40;66.90;;;;;;5032026;28;20706;-81
2021/05/29 10:45:50;;;;;;;10.77;6.00;;;15.80;68.00;;;;;;5031722;28;20383;-81
2021/05/29 10:48:17;;;;;;;10.05;6.25;;;15.70;67.00;;;;;;5030863;28;20382;-81
2021/05/29 10:50:55;;;;;;;12.93;6.72;;;15.40;66.10;;;;;;5030543;28;20387;-81
2021/05/29 10:53:40;;;;;;;12.35;6.78;;;14.70;67.30;;;;;;5031002;28;20490;-81
2021/05/29 10:56:17;;;;;;;10.27;5.30;;;15.40;68.00;;;;;;5030326;28;20388;-81
2021/05/29 10:59:03;;;;;;;11.10;5.65;;;15.70;65.60;;;;;;5030630;28;20466;-80
2021/05/29 11:01:39;;;;;;;8.50;5.20;;;15.90;65.80;;;;;;5030664;28;20978;-81
2021/05/29 11:06:51;;;;;;;12.65;6.18;;;16.10;65.70;;;;;;5029764;28;21220;-81
2021/05/29 11:09:37;;;;;;;11.07;5.75;;;15.60;65.50;;;;;;5029804;28;20477;-81
2021/05/29 11:12:04;;;;;;;11.02;5.43;;;15.70;66.00;;;;;;5029518;28;20452;-82
2021/05/29 11:14:45;;;;;;;8.88;5.25;;;15.80;69.60;;;;;;5030823;28;20399;-81
2021/05/29 11:17:12;;;;;;;8.32;5.00;;;16.40;65.10;;;;;;5030832;28;20380;-80
2021/05/29 11:19:39;;;;;;;8.20;4.47;;;16.40;67.80;;;;;;5030745;28;20383;-81
2021/05/29 11:22:09;;;;;;;11.73;5.78;;;16.80;63.10;;;;;;5029747;28;21140;-80
2021/05/29 11:24:39;;;;;;;11.63;5.75;;;15.80;64.00;;;;;;5030354;28;20418;-80
2021/05/29 11:27:08;;;;;;;11.05;5.95;;;15.10;66.80;;;;;;5030377;28;20715;-82
2021/05/29 11:30:10;;;;;;;11.77;5.45;;;15.40;67.40;;;;;;5117113;27;20473;-80
2021/05/29 11:35:49;;;;;;;8.07;5.25;;;16.00;65.40;;;;;;5029916;28;20383;-82
2021/05/29 11:38:16;;;;;;;11.20;5.30;;;16.90;65.50;;;;;;5029682;28;20467;-80
2021/05/29 11:41:08;;;;;;;10.77;5.75;;;15.80;65.60;;;;;;5030162;28;20421;-80
2021/05/29 11:43:54;;;;;;;17.40;5.57;;;15.60;65.90;;;;;;5028649;28;20470;-81
2021/05/29 11:46:26;;;;;;;7.18;4.43;;;15.90;66.60;;;;;;5029348;28;20816;-84
2021/05/29 11:49:03;;;;;;;8.15;4.55;;;16.60;63.60;;;;;;5030089;28;20442;-81
2021/05/29 11:51:36;;;;;;;14.25;5.68;;;16.40;65.30;;;;;;5029404;28;20878;-82
2021/05/29 11:54:07;;;;;;;13.40;5.32;;;16.10;63.20;;;;;;5115409;27;20403;-82
2021/05/29 11:56:34;;;;;;;7.80;4.85;;;16.20;63.20;;;;;;5115311;27;20967;-83
2021/05/29 11:59:01;;;;;;;7.22;4.50;;;15.90;65.10;;;;;;5029779;28;20448;-81
2021/05/29 12:01:36;;;;;;;7.55;4.30;;;16.10;64.70;;;;;;5029508;28;20404;-82
2021/05/29 12:04:07;;;;;;;8.05;4.40;;;16.40;63.20;;;;;;5029518;28;20395;-82
2021/05/29 12:06:45;;;;;;;6.73;4.33;;;16.40;63.60;;;;;;5029316;28;20387;-82
2021/05/29 12:09:12;;;;;;;11.45;4.60;;;16.50;62.50;;;;;;5115077;27;20400;-82
2021/05/29 12:11:40;;;;;;;7.53;4.30;;;16.00;63.60;;;;;;5027315;28;20491;-84
2021/05/29 12:14:14;;;;;;;9.32;4.20;;;16.00;64.30;;;;;;5027120;28;20388;-83
2021/05/29 12:16:43;;;;;;;7.03;4.30;;;16.10;64.90;;;;;;5025670;28;20848;-81
2021/05/29 12:19:26;;;;;;;7.60;4.55;;;16.20;64.30;;;;;;5113077;27;20390;-82
2021/05/29 12:21:54;;;;;;;8.15;5.20;;;15.90;64.80;;;;;;5026882;28;20778;-81
2021/05/29 12:24:21;;;;;;;7.90;4.60;;;15.80;63.00;;;;;;5027730;28;20470;-85
2021/05/29 12:26:50;;;;;;;7.75;4.30;;;16.00;61.30;;;;;;5114060;27;20738;-86
2021/05/29 12:29:24;;;;;;;7.17;4.40;;;16.00;65.00;;;;;;5029000;28;20470;-84
2021/05/29 12:31:58;;;;;;;5.97;4.07;;;16.50;62.50;;;;;;5028432;28;20393;-85
2021/05/29 12:34:29;;;;;;;7.10;4.40;;;16.70;62.20;;;;;;5028963;28;20376;-84
2021/05/29 12:37:00;;;;;;;6.93;5.07;;;16.80;62.00;;;;;;5114169;27;20728;-84
2021/05/29 12:39:47;;;;;;;7.28;4.82;;;16.90;61.40;;;;;;5028671;28;20376;-84
2021/05/29 12:42:17;;;;;;;9.48;5.47;;;16.80;62.60;;;;;;5028667;28;20402;-86
2021/05/29 12:44:47;;;;;;;8.73;4.90;;;16.60;62.30;;;;;;5113918;27;20387;-86
2021/05/29 12:47:21;;;;;;;6.97;4.80;;;16.40;61.00;;;;;;5114030;27;20395;-82
2021/05/29 12:49:48;;;;;;;9.93;5.03;;;16.60;62.90;;;;;;5113891;27;20393;-83
2021/05/29 12:52:32;;;;;;;10.48;5.07;;;16.10;62.20;;;;;;5028623;28;20772;-86
2021/05/29 12:54:59;;;;;;;11.88;5.20;;;15.70;63.50;;;;;;5114076;27;20399;-83
2021/05/29 12:57:40;;;;;;;11.68;5.60;;;15.80;63.10;;;;;;5113275;27;20402;-80
2021/05/29 13:00:25;;;;;;;7.15;4.88;;;16.50;61.30;;;;;;5113924;27;20760;-81
2021/05/29 13:09:04;;;;;;;8.70;4.60;;;17.30;60.60;;;;;;5027885;28;20432;-84
2021/05/29 13:11:33;;;;;;;8.02;4.55;;;17.30;60.40;;;;;;5030695;28;20448;-83